Time;durP1;ratioP1;P1;durP2;ratioP2;P2;SDS_P1;SDS_P2;PMS_P1;PMS_P2;Temp;Humidity;BMP_temperature;BMP_pressure;BME280_temperature;BME280_humidity;BME280_pressure;Samples;Min_cycle;Max_cycle;Signal;HPM_P1;HPM_P2
2021/01/12 00:02:21;;;;;;;25.50;20.23;;;;;;;-5.06;94.05;98098.53;4979789;28;20615;-73
2021/01/12 00:04:49;;;;;;;21.43;18.13;;;;;;;-5.06;93.68;98110.59;4980105;28;20553;-73
2021/01/12 00:07:19;;;;;;;28.00;21.57;;;;;;;-4.92;93.93;98100.53;4986685;28;20573;-73
2021/01/12 00:09:47;;;;;;;26.23;18.73;;;;;;;-4.83;93.08;98107.03;4980599;28;20551;-73
2021/01/12 00:12:16;;;;;;;26.17;20.60;;;;;;;-4.57;90.80;98099.94;4981177;28;21373;-73
2021/01/12 00:14:43;;;;;;;24.50;18.30;;;;;;;-4.55;90.88;98100.69;4980828;28;20453;-73
2021/01/12 00:17:10;;;;;;;26.67;18.50;;;;;;;-4.55;91.31;98090.34;4980496;28;20481;-73
2021/01/12 00:19:38;;;;;;;23.50;18.90;;;;;;;-4.45;90.02;98073.50;4981653;28;20472;-73
2021/01/12 00:22:07;;;;;;;24.10;18.53;;;;;;;-4.44;90.53;98072.59;4980678;28;20515;-73
2021/01/12 00:24:35;;;;;;;23.60;18.03;;;;;;;-4.51;90.40;98068.63;4982535;28;20460;-73
2021/01/12 00:27:03;;;;;;;24.37;18.77;;;;;;;-4.61;90.78;98081.09;4985601;28;20972;-73
2021/01/12 00:29:32;;;;;;;23.20;18.20;;;;;;;-4.55;90.61;98078.25;4986120;28;20542;-74
2021/01/12 00:31:59;;;;;;;23.27;18.40;;;;;;;-4.56;90.39;98076.56;4991204;28;20460;-73
2021/01/12 00:34:27;;;;;;;22.90;19.10;;;;;;;-4.51;90.13;98076.38;4985772;28;20461;-73
2021/01/12 00:36:54;;;;;;;30.83;19.27;;;;;;;-4.30;89.05;98077.16;4982849;28;20487;-73
2021/01/12 00:39:22;;;;;;;26.73;19.20;;;;;;;-4.33;88.64;98068.72;4985647;28;20471;-74
2021/01/12 00:41:52;;;;;;;21.17;17.40;;;;;;;-4.39;88.76;98070.66;4983741;28;20510;-74
2021/01/12 00:44:22;;;;;;;23.07;18.17;;;;;;;-4.39;89.70;98069.81;4980987;28;20460;-73
2021/01/12 00:46:49;;;;;;;23.97;19.10;;;;;;;-4.46;89.45;98058.91;4982595;28;20876;-73
2021/01/12 00:49:18;;;;;;;24.93;18.60;;;;;;;-4.28;89.15;98062.41;4988763;28;20543;-74
2021/01/12 00:51:46;;;;;;;25.17;18.97;;;;;;;-4.40;89.67;98056.03;4983925;28;20453;-73
2021/01/12 00:54:15;;;;;;;23.17;18.80;;;;;;;-4.34;89.40;98056.69;4985579;28;20452;-74
2021/01/12 00:56:47;;;;;;;21.43;16.93;;;;;;;-4.49;89.76;98050.44;4977296;28;20575;-73
2021/01/12 00:59:15;;;;;;;22.33;16.70;;;;;;;-4.40;89.22;98050.88;4984124;28;20467;-73
2021/01/12 01:01:43;;;;;;;24.27;17.27;;;;;;;-4.42;88.99;98044.09;4990849;28;20484;-73
2021/01/12 01:04:13;;;;;;;22.47;17.97;;;;;;;-4.43;89.41;98042.41;4982869;28;20544;-73
2021/01/12 01:06:40;;;;;;;23.10;18.63;;;;;;;-4.49;90.15;98053.03;4990644;28;20566;-73
2021/01/12 01:09:08;;;;;;;24.13;17.27;;;;;;;-4.55;91.09;98031.69;4985002;28;20460;-73
2021/01/12 01:11:40;;;;;;;24.07;17.50;;;;;;;-4.43;89.93;98030.31;4982243;28;20524;-73
2021/01/12 01:14:07;;;;;;;23.67;18.33;;;;;;;-4.39;90.98;98024.06;4988801;28;20459;-73
2021/01/12 01:16:36;;;;;;;21.43;16.40;;;;;;;-4.29;90.15;98021.91;4984710;28;21002;-73
2021/01/12 01:19:04;;;;;;;21.00;17.37;;;;;;;-4.16;89.48;98017.03;4985043;28;20449;-73
2021/01/12 01:21:32;;;;;;;20.77;17.27;;;;;;;-4.14;89.27;98011.78;4987538;28;20899;-73
2021/01/12 01:23:59;;;;;;;23.83;18.47;;;;;;;-4.08;89.60;98011.50;4983725;28;20461;-74
2021/01/12 01:26:26;;;;;;;22.37;16.67;;;;;;;-4.16;89.34;98006.66;4987233;28;20555;-73
2021/01/12 01:28:54;;;;;;;19.07;15.77;;;;;;;-4.17;89.25;97999.81;4985198;28;20456;-72
2021/01/12 01:31:21;;;;;;;18.63;16.17;;;;;;;-4.09;89.29;98005.47;4983774;28;20576;-73
2021/01/12 01:33:48;;;;;;;20.33;14.90;;;;;;;-4.09;89.46;98007.22;4987154;28;20452;-74
2021/01/12 01:36:16;;;;;;;19.43;16.17;;;;;;;-4.02;88.88;98010.34;4985105;28;20472;-73
2021/01/12 01:38:44;;;;;;;22.33;16.90;;;;;;;-3.99;89.40;98012.78;4987662;28;20540;-73
2021/01/12 01:41:11;;;;;;;21.17;16.60;;;;;;;-3.87;88.58;98008.78;4988876;28;20559;-73
2021/01/12 01:43:39;;;;;;;20.77;14.57;;;;;;;-3.88;89.06;97999.34;4990157;28;20448;-72
2021/01/12 01:46:07;;;;;;;21.20;16.50;;;;;;;-3.96;89.67;98005.72;4986917;28;20481;-74
2021/01/12 01:48:35;;;;;;;21.97;15.97;;;;;;;-3.79;89.65;97986.81;4985669;28;20459;-73
2021/01/12 01:51:03;;;;;;;19.50;15.47;;;;;;;-3.67;88.91;97990.56;4986436;28;20463;-74
2021/01/12 01:53:34;;;;;;;19.37;15.63;;;;;;;-3.88;89.85;97989.00;4985321;28;20523;-74
2021/01/12 01:56:04;;;;;;;19.57;16.43;;;;;;;-3.82;90.17;97986.94;4989191;28;20472;-73
2021/01/12 01:58:32;;;;;;;18.73;15.13;;;;;;;-3.63;90.59;97984.31;4985297;28;20870;-73
2021/01/12 02:00:59;;;;;;;17.33;14.43;;;;;;;-3.53;89.92;97984.69;4990404;28;20465;-73
2021/01/12 02:03:30;;;;;;;20.30;16.53;;;;;;;-3.49;89.33;97978.44;4984327;28;20548;-73
2021/01/12 02:06:04;;;;;;;18.33;15.03;;;;;;;-3.51;88.76;97979.44;4984624;28;20475;-73
2021/01/12 02:08:46;;;;;;;21.07;16.20;;;;;;;-3.49;89.09;97969.81;4980455;28;20464;-73
2021/01/12 02:11:15;;;;;;;18.20;14.83;;;;;;;-3.41;89.24;97962.53;4985895;28;20574;-73
2021/01/12 02:13:44;;;;;;;21.23;15.80;;;;;;;-3.35;89.78;97961.34;4983604;28;20456;-74
2021/01/12 02:16:12;;;;;;;19.83;15.20;;;;;;;-3.45;90.19;97957.56;4989615;28;20483;-73
2021/01/12 02:18:39;;;;;;;17.87;15.77;;;;;;;-3.41;90.85;97946.97;4983459;28;20457;-73
2021/01/12 02:21:07;;;;;;;21.37;15.63;;;;;;;-3.28;91.47;97935.97;4983417;28;20543;-74
2021/01/12 02:23:44;;;;;;;16.50;14.40;;;;;;;-3.26;91.65;97940.16;4984339;28;20449;-73
2021/01/12 02:26:11;;;;;;;17.80;13.53;;;;;;;-3.17;91.30;97925.06;4985600;28;20476;-73
2021/01/12 02:28:38;;;;;;;17.40;14.93;;;;;;;-3.17;91.84;97925.06;4984279;28;20571;-73
2021/01/12 02:31:05;;;;;;;17.93;14.07;;;;;;;-2.99;90.75;97913.72;4985762;28;20452;-73
2021/01/12 02:33:38;;;;;;;17.00;13.70;;;;;;;-3.10;91.63;97901.31;4988403;28;20456;-73
2021/01/12 02:36:07;;;;;;;16.97;14.47;;;;;;;-3.11;92.84;97904.00;4982465;28;20576;-73
2021/01/12 02:38:35;;;;;;;16.30;13.17;;;;;;;-3.10;92.61;97900.50;4986781;28;20452;-73
2021/01/12 02:41:11;;;;;;;16.33;13.20;;;;;;;-3.03;93.14;97894.06;4985407;28;20465;-73
2021/01/12 02:43:39;;;;;;;16.27;13.30;;;;;;;-3.05;92.08;97890.72;4986003;28;20458;-73
2021/01/12 02:46:06;;;;;;;14.40;12.87;;;;;;;-3.01;92.78;97879.25;4980255;28;20468;-73
2021/01/12 02:48:34;;;;;;;16.60;14.10;;;;;;;-2.86;92.10;97879.34;4983101;28;21490;-74
2021/01/12 02:51:01;;;;;;;21.43;14.60;;;;;;;-2.74;90.36;97877.84;4982685;28;20640;-74
2021/01/12 02:53:28;;;;;;;18.07;13.87;;;;;;;-2.92;91.44;97873.56;4986687;28;20453;-73
2021/01/12 02:55:56;;;;;;;14.33;12.53;;;;;;;-2.86;91.16;97877.59;4982503;28;20496;-72
2021/01/12 02:58:24;;;;;;;15.47;12.53;;;;;;;-2.72;91.47;97860.44;4981936;28;20547;-73
2021/01/12 03:00:51;;;;;;;12.43;11.13;;;;;;;-2.77;91.56;97860.72;4980783;28;20577;-73
2021/01/12 03:03:18;;;;;;;15.30;13.10;;;;;;;-2.71;91.36;97860.38;4981747;28;21732;-73
2021/01/12 03:05:46;;;;;;;16.43;13.20;;;;;;;-2.68;92.06;97855.00;4986375;28;20457;-74
2021/01/12 03:08:14;;;;;;;14.07;12.67;;;;;;;-2.82;92.27;97841.97;4978065;28;20475;-73
2021/01/12 03:10:41;;;;;;;13.23;11.53;;;;;;;-2.81;92.70;97859.22;4981460;28;20467;-72
2021/01/12 03:13:08;;;;;;;16.90;13.13;;;;;;;-2.75;93.67;97851.09;4986442;28;20965;-74
2021/01/12 03:15:37;;;;;;;13.87;12.13;;;;;;;-2.68;93.95;97843.78;4978960;28;20453;-72
2021/01/12 03:18:04;;;;;;;16.47;12.93;;;;;;;-2.66;93.26;97823.78;4984216;28;20469;-73
2021/01/12 03:20:31;;;;;;;13.50;11.53;;;;;;;-2.56;93.29;97827.56;4986356;28;20464;-73
2021/01/12 03:22:59;;;;;;;14.43;12.13;;;;;;;-2.66;93.92;97827.22;4984398;28;20488;-72
2021/01/12 03:25:26;;;;;;;13.10;11.70;;;;;;;-2.52;93.38;97813.47;4985002;28;20684;-74
2021/01/12 03:27:53;;;;;;;14.23;11.13;;;;;;;-2.40;93.33;97800.72;4985710;28;20563;-72
2021/01/12 03:30:21;;;;;;;12.97;11.30;;;;;;;-2.43;91.73;97817.34;4984306;28;20452;-74
2021/01/12 03:32:49;;;;;;;14.90;11.37;;;;;;;-2.43;91.79;97808.69;4986447;28;21014;-73
2021/01/12 03:35:17;;;;;;;16.43;11.60;;;;;;;-2.43;92.59;97809.53;4984461;28;20832;-74
2021/01/12 03:37:44;;;;;;;14.50;11.80;;;;;;;-2.31;91.90;97789.00;4984714;28;20481;-73
2021/01/12 03:40:11;;;;;;;13.37;11.10;;;;;;;-2.27;91.69;97785.28;4981866;28;20978;-73
2021/01/12 03:42:39;;;;;;;12.63;11.13;;;;;;;-2.31;91.49;97800.19;4979858;28;20491;-73
2021/01/12 03:45:07;;;;;;;15.97;11.60;;;;;;;-2.23;90.82;97789.38;4984193;28;20449;-73
2021/01/12 03:47:35;;;;;;;12.00;10.67;;;;;;;-2.34;91.84;97788.25;4981957;28;20477;-73
2021/01/12 03:50:03;;;;;;;16.00;10.33;;;;;;;-2.35;92.17;97778.78;4984844;28;20971;-73
2021/01/12 03:52:30;;;;;;;11.90;10.13;;;;;;;-2.30;91.81;97777.69;4982510;28;20495;-73
2021/01/12 03:54:57;;;;;;;11.97;10.70;;;;;;;-2.24;91.93;97772.97;4980444;28;21018;-73
2021/01/12 03:57:24;;;;;;;13.00;10.57;;;;;;;-2.20;92.24;97769.28;4982855;28;20997;-73
2021/01/12 03:59:51;;;;;;;11.63;10.43;;;;;;;-2.11;91.71;97760.09;4992237;28;20452;-72
2021/01/12 04:02:19;;;;;;;13.70;10.47;;;;;;;-2.21;92.58;97769.34;4983328;28;20481;-74
2021/01/12 04:04:46;;;;;;;13.30;10.03;;;;;;;-1.96;91.85;97754.94;4987228;28;20555;-74
2021/01/12 04:07:14;;;;;;;11.43;10.00;;;;;;;-1.96;92.03;97765.34;4978918;28;20889;-73
2021/01/12 04:09:41;;;;;;;11.93;10.13;;;;;;;-1.93;92.44;97763.38;4983314;28;20467;-73
2021/01/12 04:12:09;;;;;;;10.33;9.30;;;;;;;-1.91;91.39;97740.72;4977831;28;20460;-73
2021/01/12 04:14:36;;;;;;;13.47;9.60;;;;;;;-1.90;91.87;97764.97;4975266;28;20461;-73
2021/01/12 04:17:03;;;;;;;12.77;10.43;;;;;;;-1.85;90.77;97749.94;4982269;28;20564;-73
2021/01/12 04:19:31;;;;;;;12.37;11.07;;;;;;;-1.80;89.85;97752.28;4980931;28;20534;-72
2021/01/12 04:21:58;;;;;;;12.47;10.23;;;;;;;-1.95;90.09;97756.63;4976350;28;20986;-72
2021/01/12 04:24:26;;;;;;;11.53;10.33;;;;;;;-1.86;89.92;97732.69;4978735;28;20459;-72
2021/01/12 04:26:53;;;;;;;11.90;10.27;;;;;;;-1.85;89.59;97744.75;4979934;28;20480;-72
2021/01/12 04:29:20;;;;;;;12.30;10.97;;;;;;;-1.96;90.02;97734.97;4984588;28;20564;-72
2021/01/12 04:31:47;;;;;;;12.83;10.17;;;;;;;-1.91;89.46;97729.53;4987347;28;20456;-71
2021/01/12 04:34:14;;;;;;;11.63;10.43;;;;;;;-1.81;88.88;97732.41;4981498;28;20491;-72
2021/01/12 04:36:41;;;;;;;12.87;10.60;;;;;;;-1.95;88.71;97733.25;4981125;28;20943;-72
2021/01/12 04:39:09;;;;;;;14.43;11.40;;;;;;;-1.98;89.43;97717.84;4978854;28;20465;-72
2021/01/12 04:41:37;;;;;;;12.30;11.10;;;;;;;-1.95;88.74;97728.84;4985150;28;20448;-72
2021/01/12 04:44:04;;;;;;;13.90;11.47;;;;;;;-1.98;89.38;97728.22;4979016;28;20461;-72
2021/01/12 04:46:32;;;;;;;13.53;11.87;;;;;;;-2.08;89.76;97722.75;4985048;28;20473;-72
2021/01/12 04:48:59;;;;;;;11.13;9.90;;;;;;;-2.00;89.76;97735.28;4980798;28;20468;-73
2021/01/12 04:51:28;;;;;;;13.23;11.60;;;;;;;-1.95;88.92;97704.66;4977199;28;20465;-73
2021/01/12 04:53:55;;;;;;;13.03;10.87;;;;;;;-1.93;88.36;97715.78;4979651;28;20476;-73
2021/01/12 04:56:23;;;;;;;13.50;12.00;;;;;;;-1.83;88.68;97695.31;4978595;28;21028;-73
2021/01/12 04:58:52;;;;;;;11.77;10.57;;;;;;;-1.90;88.19;97705.22;4976056;28;20468;-73
2021/01/12 05:01:22;;;;;;;15.40;12.47;;;;;;;-1.92;89.04;97679.31;4978850;28;20624;-73
2021/01/12 05:03:50;;;;;;;12.80;11.20;;;;;;;-1.87;88.13;97699.84;4978399;28;20481;-74
2021/01/12 05:06:19;;;;;;;13.20;11.20;;;;;;;-1.88;87.84;97681.75;4978884;28;20472;-72
2021/01/12 05:08:54;;;;;;;13.00;11.40;;;;;;;-1.88;88.65;97674.78;4980584;28;20612;-71
2021/01/12 05:11:25;;;;;;;11.77;10.10;;;;;;;-1.87;89.02;97652.25;4984127;28;20209;-72
2021/01/12 05:13:55;;;;;;;13.30;11.90;;;;;;;-1.97;89.68;97670.16;4986256;28;20220;-72
2021/01/12 05:16:23;;;;;;;13.27;11.33;;;;;;;-1.92;89.26;97674.13;4986955;28;20228;-73
2021/01/12 05:18:51;;;;;;;13.00;10.53;;;;;;;-1.84;88.96;97637.31;4981826;28;20523;-73
2021/01/12 05:21:19;;;;;;;12.00;10.67;;;;;;;-1.84;89.22;97641.69;4981597;28;20460;-73
2021/01/12 05:24:00;;;;;;;12.90;11.30;;;;;;;-1.83;88.22;97638.16;4986111;28;20228;-73
2021/01/12 05:26:32;;;;;;;15.73;11.90;;;;;;;-1.85;88.80;97643.44;4981316;28;20475;-73
2021/01/12 05:29:01;;;;;;;13.87;11.93;;;;;;;-1.85;89.58;97632.22;4987484;28;20776;-71
2021/01/12 05:31:28;;;;;;;13.60;11.60;;;;;;;-1.91;90.40;97639.44;4984260;28;20456;-71
2021/01/12 05:33:56;;;;;;;13.73;12.23;;;;;;;-1.79;88.37;97624.84;4981400;28;20224;-71
2021/01/12 05:36:23;;;;;;;13.13;11.77;;;;;;;-1.85;88.56;97633.03;4984786;28;20485;-73
2021/01/12 05:38:51;;;;;;;13.40;11.97;;;;;;;-1.91;89.41;97633.41;4985932;28;20464;-71
2021/01/12 05:41:18;;;;;;;13.13;11.77;;;;;;;-1.87;89.60;97631.47;4986931;28;20460;-73
2021/01/12 05:43:46;;;;;;;14.97;12.07;;;;;;;-1.79;89.32;97629.22;4985001;28;21024;-74
2021/01/12 05:46:15;;;;;;;14.87;13.13;;;;;;;-1.84;88.41;97626.91;4984905;28;20229;-74
2021/01/12 05:48:43;;;;;;;13.07;11.67;;;;;;;-2.00;89.38;97623.59;4990806;28;20550;-74
2021/01/12 05:51:15;;;;;;;12.93;11.47;;;;;;;-1.88;89.13;97616.81;4985073;28;20620;-74
2021/01/12 05:54:04;;;;;;;16.63;11.77;;;;;;;-1.91;89.49;97610.03;4987107;28;20467;-72
2021/01/12 05:56:32;;;;;;;12.23;10.83;;;;;;;-1.87;90.15;97592.53;4985704;28;20539;-72
2021/01/12 05:59:00;;;;;;;13.23;11.83;;;;;;;-1.88;90.51;97598.66;4982094;28;20848;-73
2021/01/12 06:01:43;;;;;;;14.07;12.30;;;;;;;-1.94;90.12;97592.06;4986846;28;20825;-73
2021/01/12 06:04:11;;;;;;;14.10;12.60;;;;;;;-1.85;89.38;97591.47;4982376;28;20492;-73
2021/01/12 06:06:39;;;;;;;13.80;12.27;;;;;;;-1.88;89.71;97612.44;4983875;28;20505;-73
2021/01/12 06:09:07;;;;;;;16.70;13.90;;;;;;;-1.76;90.16;97590.88;4983507;28;20456;-72
2021/01/12 06:11:35;;;;;;;14.93;12.20;;;;;;;-1.77;90.80;97581.44;4981820;28;20474;-73
2021/01/12 06:14:07;;;;;;;13.97;12.13;;;;;;;-1.76;90.69;97579.69;4988189;28;20581;-73
2021/01/12 06:16:35;;;;;;;12.93;11.63;;;;;;;-1.78;90.32;97587.56;4982584;28;20483;-73
2021/01/12 06:19:15;;;;;;;15.47;13.57;;;;;;;-1.63;89.88;97566.75;4987606;28;20479;-72
2021/01/12 06:22:19;;;;;;;13.90;12.20;;;;;;;-1.69;90.19;97567.16;4982955;28;20773;-72
2021/01/12 06:24:55;;;;;;;17.03;13.93;;;;;;;-1.62;89.89;97547.63;4986124;28;20471;-73
2021/01/12 06:27:28;;;;;;;14.63;12.30;;;;;;;-1.65;90.46;97540.84;4983097;28;20225;-73
2021/01/12 06:29:58;;;;;;;15.37;13.10;;;;;;;-1.73;90.30;97540.50;4981883;28;20206;-73
2021/01/12 06:32:26;;;;;;;16.87;14.07;;;;;;;-1.82;91.62;97546.31;4990567;28;20628;-73
2021/01/12 06:34:56;;;;;;;19.13;13.63;;;;;;;-1.78;91.76;97537.38;4983975;28;20213;-73
2021/01/12 06:37:24;;;;;;;15.30;13.73;;;;;;;-1.78;92.67;97527.81;4983315;28;21080;-73
2021/01/12 06:39:52;;;;;;;17.10;14.67;;;;;;;-1.94;94.57;97529.72;4987144;28;20546;-73
2021/01/12 06:42:24;;;;;;;16.07;13.77;;;;;;;-1.80;98.30;97514.09;4982004;28;21078;-71
2021/01/12 06:44:53;;;;;;;17.70;14.77;;;;;;;-1.70;100.00;97518.72;4979207;28;20969;-70
2021/01/12 06:47:21;;;;;;;17.87;13.90;;;;;;;-1.75;99.80;97513.78;4982560;28;20496;-73
2021/01/12 06:49:49;;;;;;;16.97;13.50;;;;;;;-1.83;100.00;97513.47;4978921;28;20488;-73
2021/01/12 06:52:17;;;;;;;16.40;13.43;;;;;;;-1.92;100.00;97509.69;4981116;28;20449;-73
2021/01/12 06:54:45;;;;;;;18.97;15.57;;;;;;;-2.00;100.00;97517.94;4980560;28;20465;-74
2021/01/12 06:57:13;;;;;;;19.47;14.83;;;;;;;-1.93;100.00;97508.81;4984502;28;20482;-75
2021/01/12 06:59:44;;;;;;;16.80;14.43;;;;;;;-1.93;100.00;97508.00;4981638;28;20549;-74
2021/01/12 07:02:21;;;;;;;18.87;15.67;;;;;;;-2.01;100.00;97507.66;4977303;28;20488;-74
2021/01/12 07:05:11;;;;;;;19.40;16.33;;;;;;;-2.00;100.00;97506.75;4979536;28;20551;-75
2021/01/12 07:07:40;;;;;;;17.87;14.83;;;;;;;-2.00;100.00;97499.75;4980086;28;20361;-75
2021/01/12 07:10:09;;;;;;;19.53;16.00;;;;;;;-2.00;100.00;97494.56;4981499;28;20776;-74
2021/01/12 07:12:36;;;;;;;18.57;14.97;;;;;;;-1.98;100.00;97479.72;4983025;28;20551;-73
2021/01/12 07:15:06;;;;;;;17.87;14.50;;;;;;;-2.02;100.00;97488.66;4981389;28;20657;-74
2021/01/12 07:17:35;;;;;;;17.50;14.80;;;;;;;-1.95;100.00;97470.91;4979942;28;20568;-73
2021/01/12 07:20:09;;;;;;;18.20;15.23;;;;;;;-2.07;100.00;97472.53;4980381;28;20899;-73
2021/01/12 07:22:39;;;;;;;20.53;16.17;;;;;;;-1.99;100.00;97464.25;4984485;28;20490;-74
2021/01/12 07:25:09;;;;;;;20.53;16.03;;;;;;;-2.05;100.00;97466.31;4982478;28;20532;-74
2021/01/12 07:27:36;;;;;;;17.40;15.47;;;;;;;-1.94;100.00;97470.81;4984086;28;20488;-74
2021/01/12 07:30:06;;;;;;;17.93;15.23;;;;;;;-2.00;100.00;97467.78;4978695;28;20499;-74
2021/01/12 07:32:35;;;;;;;18.90;16.20;;;;;;;-1.93;100.00;97469.88;4975980;28;20986;-75
2021/01/12 07:35:08;;;;;;;17.53;14.53;;;;;;;-1.98;100.00;97463.31;4982068;28;20455;-75
2021/01/12 07:37:41;;;;;;;19.83;16.00;;;;;;;-1.98;100.00;97471.13;4982051;28;20488;-75
2021/01/12 07:40:09;;;;;;;23.00;16.47;;;;;;;-1.98;100.00;97464.16;4979418;28;20559;-74
2021/01/12 07:42:46;;;;;;;19.23;15.97;;;;;;;-1.93;100.00;97462.06;4978547;28;20934;-75
2021/01/12 07:45:15;;;;;;;20.57;15.73;;;;;;;-1.97;100.00;97460.63;4985284;28;20490;-74
2021/01/12 07:47:42;;;;;;;19.77;16.37;;;;;;;-2.02;100.00;97462.69;4980294;28;20472;-74
2021/01/12 07:50:10;;;;;;;22.30;16.93;;;;;;;-2.07;100.00;97459.53;4978207;28;20583;-75
2021/01/12 07:52:38;;;;;;;21.07;17.80;;;;;;;-1.78;100.00;97454.25;4978746;28;20457;-75
2021/01/12 07:55:07;;;;;;;22.10;16.80;;;;;;;-1.42;100.00;97455.38;4973450;28;20504;-75
2021/01/12 07:57:35;;;;;;;19.20;16.73;;;;;;;-1.54;100.00;97458.75;4978768;28;22074;-75
2021/01/12 08:00:03;;;;;;;19.63;15.97;;;;;;;-1.75;100.00;97461.84;4982105;28;20820;-75
2021/01/12 08:02:31;;;;;;;21.80;17.27;;;;;;;-1.92;100.00;97448.16;4983765;28;20503;-74
2021/01/12 08:04:58;;;;;;;20.73;16.90;;;;;;;-2.01;100.00;97450.53;4981801;28;20215;-75
2021/01/12 08:07:26;;;;;;;20.77;16.57;;;;;;;-1.94;100.00;97433.63;4981884;28;20233;-75
2021/01/12 08:09:55;;;;;;;20.10;16.47;;;;;;;-2.10;100.00;97438.97;4982268;28;20216;-75
2021/01/12 08:12:23;;;;;;;19.60;16.43;;;;;;;-1.94;100.00;97438.81;4978691;28;20457;-75
2021/01/12 08:14:52;;;;;;;21.10;17.23;;;;;;;-1.99;100.00;97435.69;4981646;28;20461;-75
2021/01/12 08:17:20;;;;;;;20.97;16.93;;;;;;;-1.93;100.00;97437.88;4978415;28;20762;-75
2021/01/12 08:19:48;;;;;;;21.20;17.00;;;;;;;-1.93;100.00;97443.91;4981361;28;20978;-75
2021/01/12 08:22:17;;;;;;;18.97;16.27;;;;;;;-1.96;100.00;97440.69;4979282;28;20466;-75
2021/01/12 08:24:45;;;;;;;18.23;16.17;;;;;;;-1.86;100.00;97439.16;4981440;28;20556;-76
2021/01/12 08:27:13;;;;;;;23.53;18.20;;;;;;;-1.91;100.00;97433.44;4978183;28;20488;-77
2021/01/12 08:29:41;;;;;;;20.23;16.50;;;;;;;-1.82;100.00;97435.41;4981569;28;20465;-74
2021/01/12 08:32:13;;;;;;;21.00;17.13;;;;;;;-1.80;100.00;97425.75;4983451;28;21062;-73
2021/01/12 08:34:55;;;;;;;19.47;16.80;;;;;;;-1.76;100.00;97429.81;4981439;28;20519;-75
2021/01/12 08:37:23;;;;;;;20.67;17.30;;;;;;;-1.73;100.00;97434.00;4979729;28;20480;-75
2021/01/12 08:39:51;;;;;;;20.33;15.27;;;;;;;-1.68;100.00;97425.91;4978527;28;20832;-75
2021/01/12 08:42:19;;;;;;;17.17;15.23;;;;;;;-1.65;100.00;97430.91;4979841;28;20298;-76
2021/01/12 08:44:48;;;;;;;16.90;15.03;;;;;;;-1.77;100.00;97427.34;4977465;28;20464;-74
2021/01/12 08:47:15;;;;;;;20.73;16.80;;;;;;;-1.69;100.00;97413.84;4984007;28;20576;-74
2021/01/12 08:49:42;;;;;;;19.93;16.50;;;;;;;-1.71;100.00;97426.09;4981653;28;20459;-74
2021/01/12 08:52:10;;;;;;;18.03;15.07;;;;;;;-1.72;100.00;97417.47;4980470;28;20474;-75
2021/01/12 08:54:38;;;;;;;20.90;16.23;;;;;;;-1.67;100.00;97415.41;4984722;28;20453;-75
2021/01/12 08:57:05;;;;;;;18.60;15.70;;;;;;;-1.73;100.00;97410.59;4983117;28;20488;-75
2021/01/12 08:59:33;;;;;;;18.63;15.10;;;;;;;-1.68;100.00;97407.72;4984164;28;20449;-75
2021/01/12 09:02:02;;;;;;;18.53;15.77;;;;;;;-1.64;100.00;97403.97;4982988;28;20216;-75
2021/01/12 09:04:29;;;;;;;21.77;17.00;;;;;;;-1.76;100.00;97401.25;4982471;28;20676;-75
2021/01/12 09:07:05;;;;;;;19.50;16.00;;;;;;;-1.72;100.00;97414.88;4982827;28;20571;-76
2021/01/12 09:09:33;;;;;;;19.27;17.10;;;;;;;-1.76;100.00;97403.84;4980955;28;20626;-75
2021/01/12 09:12:10;;;;;;;22.33;16.10;;;;;;;-1.65;100.00;97407.50;4985002;28;20221;-75
2021/01/12 09:14:45;;;;;;;19.10;15.50;;;;;;;-1.66;100.00;97408.44;4981753;28;21126;-76
2021/01/12 09:17:16;;;;;;;21.23;16.80;;;;;;;-1.63;100.00;97397.84;4983740;28;20502;-74
2021/01/12 09:19:48;;;;;;;22.03;17.90;;;;;;;-1.68;100.00;97399.94;4988297;28;20204;-76
2021/01/12 09:22:17;;;;;;;22.23;16.97;;;;;;;-1.57;100.00;97401.78;4979258;28;20242;-75
2021/01/12 09:24:49;;;;;;;17.97;15.43;;;;;;;-1.56;100.00;97391.31;4980399;28;20808;-74
2021/01/12 09:27:20;;;;;;;18.23;15.33;;;;;;;-1.57;100.00;97399.19;4982406;28;20236;-74
2021/01/12 09:29:48;;;;;;;20.20;16.10;;;;;;;-1.49;100.00;97391.72;4981551;28;20464;-75
2021/01/12 09:32:29;;;;;;;17.90;15.97;;;;;;;-1.60;100.00;97395.84;4983192;28;20550;-75
2021/01/12 09:34:57;;;;;;;21.00;17.90;;;;;;;-1.60;100.00;97389.84;4983982;28;20732;-73
2021/01/12 09:37:24;;;;;;;19.33;16.00;;;;;;;-1.53;100.00;97393.69;4980952;28;20269;-74
2021/01/12 09:39:53;;;;;;;18.27;15.60;;;;;;;-1.44;100.00;97394.00;4981545;28;20300;-74
2021/01/12 09:42:25;;;;;;;17.80;15.90;;;;;;;-1.33;100.00;97392.34;4981957;28;20571;-74
2021/01/12 09:45:08;;;;;;;18.97;15.47;;;;;;;-1.34;100.00;97388.09;4984033;28;20214;-72
2021/01/12 09:47:37;;;;;;;19.77;15.47;;;;;;;-1.44;100.00;97389.66;4982877;28;21092;-74
2021/01/12 09:50:05;;;;;;;17.87;14.30;;;;;;;-1.37;100.00;97379.66;4985723;28;20201;-74
2021/01/12 09:52:32;;;;;;;18.30;14.53;;;;;;;-1.35;100.00;97380.38;4984317;28;20309;-74
2021/01/12 09:54:59;;;;;;;18.77;15.43;;;;;;;-1.33;100.00;97373.31;4979959;28;20560;-72
2021/01/12 09:57:27;;;;;;;17.33;15.53;;;;;;;-1.33;100.00;97368.94;4983213;28;20213;-73
2021/01/12 09:59:54;;;;;;;16.57;14.47;;;;;;;-1.20;100.00;97361.16;4984213;28;20202;-73
2021/01/12 10:02:21;;;;;;;19.13;15.13;;;;;;;-1.25;100.00;97357.19;4984530;28;20301;-74
2021/01/12 10:04:50;;;;;;;19.33;15.43;;;;;;;-1.29;100.00;97359.19;4983852;28;20209;-74
2021/01/12 10:07:17;;;;;;;16.77;13.87;;;;;;;-1.18;100.00;97353.22;4984148;28;20320;-74
2021/01/12 10:09:44;;;;;;;17.60;14.13;;;;;;;-1.15;100.00;97354.78;4983682;28;20656;-75
2021/01/12 10:12:12;;;;;;;17.63;14.90;;;;;;;-1.17;100.00;97345.34;4982578;28;20659;-74
2021/01/12 10:14:39;;;;;;;15.70;13.73;;;;;;;-1.03;100.00;97335.72;4979714;28;20638;-74
2021/01/12 10:17:08;;;;;;;15.83;13.37;;;;;;;-1.08;100.00;97346.47;4985059;28;20700;-74
2021/01/12 10:19:36;;;;;;;17.90;14.27;;;;;;;-1.05;100.00;97332.41;4983930;28;20463;-73
2021/01/12 10:22:04;;;;;;;16.80;14.63;;;;;;;-1.19;100.00;97336.81;4982831;28;20585;-75
2021/01/12 10:24:31;;;;;;;15.67;13.60;;;;;;;-1.13;100.00;97326.91;4984364;28;20804;-73
2021/01/12 10:26:59;;;;;;;16.10;14.40;;;;;;;-1.07;100.00;97329.09;4977706;28;20892;-74
2021/01/12 10:29:29;;;;;;;16.83;14.47;;;;;;;-1.06;100.00;97317.75;4980212;28;20463;-74
2021/01/12 10:31:56;;;;;;;14.83;12.63;;;;;;;-1.09;100.00;97316.19;4982061;28;20300;-75
2021/01/12 10:34:24;;;;;;;15.20;12.13;;;;;;;-0.83;100.00;97317.91;4980849;28;20587;-74
2021/01/12 10:36:52;;;;;;;13.30;11.93;;;;;;;-0.98;100.00;97312.81;4986833;28;20602;-73
2021/01/12 10:39:20;;;;;;;12.63;10.27;;;;;;;-0.92;100.00;97308.97;4984025;28;20673;-73
2021/01/12 10:41:48;;;;;;;12.67;11.33;;;;;;;-0.95;100.00;97306.59;4982560;28;20781;-72
2021/01/12 10:44:15;;;;;;;12.97;11.23;;;;;;;-0.95;100.00;97297.00;4982010;28;20233;-74
2021/01/12 10:46:43;;;;;;;13.47;11.00;;;;;;;-0.85;100.00;97298.97;4979215;28;20222;-73
2021/01/12 10:49:10;;;;;;;12.67;10.93;;;;;;;-0.71;100.00;97293.59;4983456;28;20535;-73
2021/01/12 10:51:38;;;;;;;13.40;11.50;;;;;;;-0.67;100.00;97300.25;4981212;28;20222;-73
2021/01/12 10:54:05;;;;;;;11.37;10.27;;;;;;;-0.61;100.00;97296.38;4981249;28;22028;-73
2021/01/12 10:56:33;;;;;;;13.07;11.20;;;;;;;-0.60;100.00;97283.22;4978774;28;20469;-73
2021/01/12 10:59:00;;;;;;;11.00;10.00;;;;;;;-0.66;100.00;97281.06;4983291;28;20620;-72
2021/01/12 11:01:28;;;;;;;11.43;10.20;;;;;;;-0.64;100.00;97284.41;4978891;28;20558;-73
2021/01/12 11:03:55;;;;;;;10.20;9.13;;;;;;;-0.63;100.00;97282.66;4981346;28;20236;-72
2021/01/12 11:06:24;;;;;;;10.33;9.27;;;;;;;-0.48;100.00;97278.09;4980384;28;20276;-73
2021/01/12 11:08:53;;;;;;;13.83;10.20;;;;;;;-0.49;100.00;97269.44;4979628;28;20595;-73
2021/01/12 11:11:21;;;;;;;10.70;9.60;;;;;;;-0.53;100.00;97267.19;4981981;28;20218;-73
2021/01/12 11:13:56;;;;;;;9.53;8.60;;;;;;;-0.43;100.00;97265.56;4982463;28;20212;-74
2021/01/12 11:16:24;;;;;;;9.00;8.13;;;;;;;-0.36;100.00;97258.97;4982448;28;20236;-74
2021/01/12 11:18:52;;;;;;;7.87;7.10;;;;;;;-0.46;100.00;97252.78;4981886;28;20209;-74
2021/01/12 11:21:20;;;;;;;7.50;6.73;;;;;;;-0.44;100.00;97251.72;4978903;28;20829;-74
2021/01/12 11:23:47;;;;;;;6.70;5.97;;;;;;;-0.37;100.00;97253.88;4978347;28;21020;-73